Time;durP1;ratioP1;P1;durP2;ratioP2;P2;SDS_P1;SDS_P2;PMS_P1;PMS_P2;Temp;Humidity;BMP_temperature;BMP_pressure;BME280_temperature;BME280_humidity;BME280_pressure;Samples;Min_cycle;Max_cycle;Signal;HPM_P1;HPM_P2
2022/11/21 00:01:31;;;;;;;;;;;10.20;92.30;;;;;;5118150;27;19972;-64
2022/11/21 00:03:57;;;;;;;;;;;10.60;92.30;;;;;;5119006;27;19977;-64
2022/11/21 00:06:23;;;;;;;;;;;10.30;92.30;;;;;;5118657;27;19968;-64
2022/11/21 00:08:49;;;;;;;;;;;;;;;;;;5116095;28;19978;-64
2022/11/21 00:11:14;;;;;;;;;;;10.50;92.40;;;;;;5117399;28;19923;-64
2022/11/21 00:13:40;;;;;;;;;;;10.10;92.30;;;;;;5117559;28;19931;-64
2022/11/21 00:16:07;;;;;;;;;;;10.40;92.30;;;;;;5121244;27;20015;-64
2022/11/21 00:18:33;;;;;;;;;;;10.40;92.30;;;;;;5122475;27;20289;-64
2022/11/21 00:21:12;;;;;;;;;;;10.50;92.30;;;;;;5126538;27;19928;-64
2022/11/21 00:23:37;;;;;;;;;;;10.50;91.90;;;;;;5115037;27;20284;-64
2022/11/21 00:26:04;;;;;;;;;;;10.50;92.20;;;;;;5119942;27;19927;-65
2022/11/21 00:28:29;;;;;;;;;;;10.50;92.20;;;;;;5129764;27;19931;-64
2022/11/21 00:30:55;;;;;;;;;;;10.50;92.20;;;;;;5115283;28;19927;-64
2022/11/21 00:33:21;;;;;;;;;;;10.50;92.20;;;;;;5117960;27;19924;-64
2022/11/21 00:35:46;;;;;;;;;;;10.50;92.20;;;;;;5127832;27;19950;-65
2022/11/21 00:38:12;;;;;;;;;;;10.30;92.10;;;;;;5120143;27;19974;-64
2022/11/21 00:40:37;;;;;;;;;;;10.40;92.20;;;;;;5116559;28;20381;-64
2022/11/21 00:43:03;;;;;;;;;;;10.30;92.20;;;;;;5126050;27;19923;-64
2022/11/21 00:45:29;;;;;;;;;;;10.40;92.20;;;;;;5134284;27;19923;-64
2022/11/21 00:47:54;;;;;;;;;;;10.60;92.30;;;;;;5133523;27;20274;-64
2022/11/21 00:50:20;;;;;;;;;;;10.50;92.30;;;;;;5123655;27;19931;-64
2022/11/21 00:52:46;;;;;;;;;;;10.40;92.20;;;;;;5114773;27;19923;-64
2022/11/21 00:55:11;;;;;;;;;;;10.40;91.90;;;;;;5133407;27;19924;-64
2022/11/21 00:57:37;;;;;;;;;;;;;;;;;;5132403;27;20297;-65
2022/11/21 01:00:03;;;;;;;;;;;10.50;92.20;;;;;;5133105;27;19924;-65
2022/11/21 01:02:30;;;;;;;;;;;10.30;92.10;;;;;;5114566;27;20387;-64
2022/11/21 01:04:56;;;;;;;;;;;10.50;92.20;;;;;;5115875;28;19930;-64
2022/11/21 01:07:21;;;;;;;;;;;10.30;92.10;;;;;;5125675;27;20014;-64
2022/11/21 01:09:47;;;;;;;;;;;10.40;92.10;;;;;;5134632;27;20403;-64
2022/11/21 01:12:13;;;;;;;;;;;10.20;92.10;;;;;;5123240;27;19963;-64
2022/11/21 01:14:38;;;;;;;;;;;10.60;92.20;;;;;;5129134;27;20365;-64
2022/11/21 01:17:04;;;;;;;;;;;10.60;92.20;;;;;;5130174;27;19924;-64
2022/11/21 01:19:29;;;;;;;;;;;10.30;92.20;;;;;;5136921;27;20388;-65
2022/11/21 01:21:55;;;;;;;;;;;10.40;92.20;;;;;;5132424;27;19929;-64
2022/11/21 01:24:21;;;;;;;;;;;10.60;92.20;;;;;;5124068;27;19923;-64
2022/11/21 01:26:49;;;;;;;;;;;;;;;;;;5130141;27;19951;-64
2022/11/21 01:29:15;;;;;;;;;;;10.50;92.20;;;;;;5127761;27;19929;-64
2022/11/21 01:31:41;;;;;;;;;;;;;;;;;;5123969;27;19975;-64
2022/11/21 01:34:07;;;;;;;;;;;10.10;92.10;;;;;;5135394;27;19931;-64
2022/11/21 01:36:33;;;;;;;;;;;10.40;92.10;;;;;;5128502;27;19920;-64
2022/11/21 01:38:59;;;;;;;;;;;10.40;92.20;;;;;;5124623;27;19928;-65
2022/11/21 01:41:27;;;;;;;;;;;10.30;92.20;;;;;;5120029;27;20043;-64
2022/11/21 01:43:53;;;;;;;;;;;;;;;;;;5128050;27;20059;-64
2022/11/21 01:46:19;;;;;;;;;;;;;;;;;;5116608;27;19976;-64
2022/11/21 01:48:47;;;;;;;;;;;10.50;92.30;;;;;;5126210;27;19930;-64
2022/11/21 01:51:18;;;;;;;;;;;10.20;92.20;;;;;;5130539;27;20393;-64
2022/11/21 01:53:44;;;;;;;;;;;10.10;92.10;;;;;;5115273;27;19923;-64
2022/11/21 01:56:09;;;;;;;;;;;10.60;92.20;;;;;;5123063;27;19923;-64
2022/11/21 01:58:35;;;;;;;;;;;10.20;92.10;;;;;;5105443;27;19939;-65
2022/11/21 02:01:01;;;;;;;;;;;10.40;92.20;;;;;;5112598;27;19931;-64
2022/11/21 02:03:27;;;;;;;;;;;10.30;92.10;;;;;;5114853;27;19927;-64
2022/11/21 02:05:53;;;;;;;;;;;10.20;92.20;;;;;;5098883;27;19989;-64
2022/11/21 02:08:19;;;;;;;;;;;10.30;92.20;;;;;;5133773;27;19927;-64
2022/11/21 02:10:47;;;;;;;;;;;10.40;92.20;;;;;;5122307;27;19992;-64
2022/11/21 02:13:12;;;;;;;;;;;10.40;92.20;;;;;;5119902;27;19923;-64
2022/11/21 02:15:38;;;;;;;;;;;10.40;92.20;;;;;;5114747;28;19927;-64
2022/11/21 02:18:04;;;;;;;;;;;;;;;;;;5119691;27;20413;-64
2022/11/21 02:20:29;;;;;;;;;;;10.40;92.30;;;;;;5116634;27;19924;-65
2022/11/21 02:22:55;;;;;;;;;;;;;;;;;;5124891;27;19930;-66
2022/11/21 02:25:22;;;;;;;;;;;10.30;92.20;;;;;;5108430;27;20296;-64
2022/11/21 02:27:48;;;;;;;;;;;10.50;92.30;;;;;;5132804;27;20428;-64
2022/11/21 02:30:14;;;;;;;;;;;10.50;92.30;;;;;;5132262;27;19964;-64
2022/11/21 02:32:40;;;;;;;;;;;10.30;92.20;;;;;;5118624;27;19967;-64
2022/11/21 02:35:06;;;;;;;;;;;10.60;92.00;;;;;;5114127;27;20342;-65
2022/11/21 02:37:32;;;;;;;;;;;10.00;92.10;;;;;;5128987;27;19930;-64
2022/11/21 02:39:58;;;;;;;;;;;10.20;92.20;;;;;;5120507;27;19927;-64
2022/11/21 02:42:27;;;;;;;;;;;10.60;92.20;;;;;;5111984;28;19934;-64
2022/11/21 02:44:55;;;;;;;;;;;10.50;92.30;;;;;;5113215;28;19923;-64
2022/11/21 02:47:20;;;;;;;;;;;10.50;92.30;;;;;;5113861;28;19924;-65
2022/11/21 02:49:46;;;;;;;;;;;;;;;;;;5088973;28;20027;-65
2022/11/21 02:52:12;;;;;;;;;;;10.10;92.20;;;;;;5132538;27;19924;-65
2022/11/21 02:54:37;;;;;;;;;;;10.20;92.20;;;;;;5133052;27;19924;-66
2022/11/21 02:57:03;;;;;;;;;;;10.40;92.30;;;;;;5132711;27;19977;-64
2022/11/21 02:59:29;;;;;;;;;;;;;;;;;;5151037;27;19924;-65
2022/11/21 03:01:58;;;;;;;;;;;10.40;92.30;;;;;;5130006;27;19923;-64
2022/11/21 03:04:24;;;;;;;;;;;10.50;92.30;;;;;;5118518;27;19924;-64
2022/11/21 03:06:50;;;;;;;;;;;10.40;92.30;;;;;;5125462;27;19924;-64
2022/11/21 03:09:15;;;;;;;;;;;10.60;92.30;;;;;;5114264;28;20367;-64
2022/11/21 03:11:41;;;;;;;;;;;10.40;92.00;;;;;;5118895;28;19930;-65
2022/11/21 03:14:07;;;;;;;;;;;;;;;;;;5134415;27;20501;-65
2022/11/21 03:16:33;;;;;;;;;;;10.50;92.30;;;;;;5117849;27;19919;-64
2022/11/21 03:18:58;;;;;;;;;;;10.30;92.30;;;;;;5118099;27;19931;-64
2022/11/21 03:21:24;;;;;;;;;;;10.40;92.30;;;;;;5119319;27;19931;-65
2022/11/21 03:23:49;;;;;;;;;;;10.60;92.30;;;;;;5131326;27;19930;-64
2022/11/21 03:26:15;;;;;;;;;;;10.70;92.40;;;;;;5119484;27;19919;-64
2022/11/21 03:28:41;;;;;;;;;;;10.60;92.40;;;;;;5147332;27;19923;-64
2022/11/21 03:31:07;;;;;;;;;;;10.40;92.30;;;;;;5117382;27;20365;-65
2022/11/21 03:33:33;;;;;;;;;;;;;;;;;;5087288;27;19970;-64
2022/11/21 03:35:58;;;;;;;;;;;10.30;92.20;;;;;;5147966;27;19924;-64
2022/11/21 03:38:24;;;;;;;;;;;10.40;92.30;;;;;;5137655;27;19930;-64
2022/11/21 03:40:50;;;;;;;;;;;10.50;92.30;;;;;;5136476;27;20300;-64
2022/11/21 03:43:15;;;;;;;;;;;10.20;92.20;;;;;;5133156;27;19924;-65
2022/11/21 03:45:41;;;;;;;;;;;10.60;92.30;;;;;;5116447;27;19967;-67
2022/11/21 03:48:07;;;;;;;;;;;10.30;92.30;;;;;;5141562;27;19975;-65
2022/11/21 03:50:32;;;;;;;;;;;10.40;92.20;;;;;;5117527;27;20011;-65
2022/11/21 03:52:58;;;;;;;;;;;10.50;92.30;;;;;;5132645;27;19963;-66
2022/11/21 03:55:23;;;;;;;;;;;10.20;92.20;;;;;;5130888;27;19931;-64
2022/11/21 03:57:49;;;;;;;;;;;10.40;92.30;;;;;;5135977;27;19923;-64
2022/11/21 04:00:15;;;;;;;;;;;10.40;92.30;;;;;;5132019;27;19919;-64
2022/11/21 04:02:41;;;;;;;;;;;10.30;92.20;;;;;;5116726;27;19930;-64
2022/11/21 04:05:07;;;;;;;;;;;;;;;;;;5099890;28;20388;-64
2022/11/21 04:07:33;;;;;;;;;;;;;;;;;;5130817;27;19938;-66
2022/11/21 04:09:58;;;;;;;;;;;10.20;92.30;;;;;;5117944;28;19923;-64
2022/11/21 04:12:24;;;;;;;;;;;10.30;92.30;;;;;;5117205;28;20380;-64
2022/11/21 04:14:50;;;;;;;;;;;10.40;92.30;;;;;;5117784;28;19969;-65
2022/11/21 04:17:15;;;;;;;;;;;10.30;92.30;;;;;;5122875;27;19924;-64
2022/11/21 04:19:41;;;;;;;;;;;10.20;92.30;;;;;;5124168;27;19967;-66
2022/11/21 04:22:06;;;;;;;;;;;10.50;92.40;;;;;;5129651;27;19923;-64
2022/11/21 04:24:32;;;;;;;;;;;10.20;92.30;;;;;;5136370;27;20288;-64
2022/11/21 04:26:58;;;;;;;;;;;;;;;;;;5134336;27;19931;-64
2022/11/21 04:29:24;;;;;;;;;;;10.60;92.40;;;;;;5135178;27;19923;-64
2022/11/21 04:31:49;;;;;;;;;;;10.40;92.30;;;;;;5126001;27;19930;-65
2022/11/21 04:34:15;;;;;;;;;;;10.20;92.30;;;;;;5123220;27;19924;-64
2022/11/21 04:36:40;;;;;;;;;;;10.20;92.30;;;;;;5130406;27;19923;-64
2022/11/21 04:39:06;;;;;;;;;;;;;;;;;;5106551;28;19927;-64
2022/11/21 04:41:32;;;;;;;;;;;10.30;92.30;;;;;;5121405;27;19977;-64
2022/11/21 04:43:58;;;;;;;;;;;10.30;92.30;;;;;;5151761;27;20026;-64
2022/11/21 04:46:23;;;;;;;;;;;10.30;92.30;;;;;;5131652;27;19927;-64
2022/11/21 04:48:49;;;;;;;;;;;10.40;92.30;;;;;;5132564;27;19924;-64
2022/11/21 04:51:15;;;;;;;;;;;;;;;;;;5133906;27;19927;-65
2022/11/21 04:53:40;;;;;;;;;;;10.40;92.30;;;;;;5128007;27;19923;-64
2022/11/21 04:56:06;;;;;;;;;;;10.30;92.30;;;;;;5118646;27;19950;-64
2022/11/21 04:58:32;;;;;;;;;;;10.30;92.30;;;;;;5132217;27;19928;-67
2022/11/21 05:00:58;;;;;;;;;;;10.30;92.30;;;;;;5129205;27;20282;-66
2022/11/21 05:03:23;;;;;;;;;;;10.20;92.30;;;;;;5098211;27;19923;-66
2022/11/21 05:05:49;;;;;;;;;;;10.30;92.30;;;;;;5116347;27;20389;-65
2022/11/21 05:08:15;;;;;;;;;;;;;;;;;;5134718;27;19930;-64
2022/11/21 05:13:25;;;;;;;;;;;10.20;92.30;;;;;;5130640;27;19923;-64
2022/11/21 05:15:57;;;;;;;;;;;10.30;92.40;;;;;;5131568;27;20269;-64
2022/11/21 05:18:23;;;;;;;;;;;;;;;;;;5115950;28;19924;-64
2022/11/21 05:20:49;;;;;;;;;;;10.30;92.40;;;;;;5138415;27;19931;-64
2022/11/21 05:23:14;;;;;;;;;;;10.10;92.30;;;;;;5116717;27;19928;-64
2022/11/21 05:25:40;;;;;;;;;;;10.40;92.40;;;;;;5135227;27;20284;-64
2022/11/21 05:28:06;;;;;;;;;;;10.40;92.30;;;;;;5127087;27;19928;-64
2022/11/21 05:30:31;;;;;;;;;;;10.20;92.20;;;;;;5128206;27;19959;-65
2022/11/21 05:32:57;;;;;;;;;;;10.30;92.20;;;;;;5131814;27;20019;-64
2022/11/21 05:35:23;;;;;;;;;;;10.40;92.20;;;;;;5116354;28;20423;-64
2022/11/21 05:37:54;;;;;;;;;;;10.30;92.20;;;;;;5115256;27;19958;-64
2022/11/21 05:40:19;;;;;;;;;;;10.30;92.30;;;;;;5134056;27;19934;-64
2022/11/21 05:45:30;;;;;;;;;;;10.30;92.20;;;;;;5119385;27;19931;-64
2022/11/21 05:47:55;;;;;;;;;;;10.40;92.30;;;;;;5114865;28;19928;-64
2022/11/21 05:50:21;;;;;;;;;;;10.30;92.30;;;;;;5128464;27;19931;-66
2022/11/21 05:52:47;;;;;;;;;;;10.10;92.30;;;;;;5115027;27;19936;-65
2022/11/21 05:55:12;;;;;;;;;;;10.10;92.30;;;;;;5121653;27;20355;-64
2022/11/21 05:57:38;;;;;;;;;;;10.10;92.30;;;;;;5122826;27;19942;-64
2022/11/21 06:00:04;;;;;;;;;;;10.10;91.90;;;;;;5130917;27;20376;-64
2022/11/21 06:05:14;;;;;;;;;;;10.20;92.30;;;;;;5115420;28;19977;-64
2022/11/21 06:07:39;;;;;;;;;;;10.10;92.30;;;;;;5127049;27;19923;-65
2022/11/21 06:10:05;;;;;;;;;;;9.90;92.30;;;;;;5115271;28;19923;-64
2022/11/21 06:12:31;;;;;;;;;;;;;;;;;;5125234;27;19969;-64
2022/11/21 06:14:57;;;;;;;;;;;10.20;92.40;;;;;;5132186;27;19949;-64
2022/11/21 06:17:22;;;;;;;;;;;10.20;92.40;;;;;;5120732;27;20388;-64
2022/11/21 06:19:48;;;;;;;;;;;10.10;92.50;;;;;;5124884;27;19972;-64
2022/11/21 06:22:14;;;;;;;;;;;9.90;92.40;;;;;;5129007;27;19971;-65
2022/11/21 06:24:39;;;;;;;;;;;10.10;92.50;;;;;;5115721;27;20301;-64
2022/11/21 06:27:05;;;;;;;;;;;10.00;92.40;;;;;;5117800;27;19927;-64
2022/11/21 06:29:30;;;;;;;;;;;10.10;92.40;;;;;;5126449;27;20474;-64
2022/11/21 06:31:56;;;;;;;;;;;10.00;92.30;;;;;;5122159;27;20022;-64
2022/11/21 06:34:22;;;;;;;;;;;9.90;92.30;;;;;;5120498;27;19954;-64
2022/11/21 06:36:48;;;;;;;;;;;10.20;92.40;;;;;;5118892;27;20299;-64
2022/11/21 06:39:13;;;;;;;;;;;10.00;92.30;;;;;;5113328;28;19930;-64
2022/11/21 06:41:39;;;;;;;;;;;10.10;92.30;;;;;;5103690;27;19923;-64
2022/11/21 06:44:05;;;;;;;;;;;10.20;92.20;;;;;;5133756;27;19980;-64
2022/11/21 06:46:30;;;;;;;;;;;10.00;92.20;;;;;;5110666;28;19923;-65
2022/11/21 06:48:56;;;;;;;;;;;;;;;;;;5113877;28;20266;-65
2022/11/21 06:51:22;;;;;;;;;;;10.00;92.20;;;;;;5129695;27;20008;-65
2022/11/21 06:53:54;;;;;;;;;;;10.20;92.30;;;;;;5110694;27;19923;-65
2022/11/21 06:56:20;;;;;;;;;;;10.10;92.30;;;;;;5130362;27;19924;-65
2022/11/21 06:58:46;;;;;;;;;;;;;;;;;;5096173;28;19934;-64
2022/11/21 07:01:12;;;;;;;;;;;10.10;92.30;;;;;;5114927;27;20292;-65
2022/11/21 07:03:38;;;;;;;;;;;10.30;92.30;;;;;;5113612;28;19927;-66
2022/11/21 07:06:03;;;;;;;;;;;10.10;92.20;;;;;;5099177;28;20446;-66
2022/11/21 07:08:29;;;;;;;;;;;9.80;92.20;;;;;;5099564;28;19946;-65
2022/11/21 07:10:55;;;;;;;;;;;10.00;92.30;;;;;;5111413;28;20380;-65
2022/11/21 07:13:21;;;;;;;;;;;9.90;92.30;;;;;;5114134;28;19924;-64
2022/11/21 07:15:47;;;;;;;;;;;10.00;92.30;;;;;;5112897;28;20011;-64
2022/11/21 07:18:13;;;;;;;;;;;10.00;92.10;;;;;;5128215;28;19930;-66
2022/11/21 07:20:38;;;;;;;;;;;10.30;92.10;;;;;;5131821;28;20291;-64
2022/11/21 07:23:04;;;;;;;;;;;;;;;;;;5129744;27;19924;-65
2022/11/21 07:25:30;;;;;;;;;;;10.30;92.20;;;;;;5133633;28;19924;-65
2022/11/21 07:28:00;;;;;;;;;;;10.00;92.20;;;;;;5129278;27;20037;-64
2022/11/21 07:30:26;;;;;;;;;;;9.70;92.10;;;;;;5132158;27;20001;-65
2022/11/21 07:32:57;;;;;;;;;;;10.10;92.20;;;;;;5119144;28;19962;-65
2022/11/21 07:35:23;;;;;;;;;;;10.10;92.20;;;;;;5123646;27;19970;-67
2022/11/21 07:37:49;;;;;;;;;;;10.00;92.00;;;;;;5130735;28;20348;-65
2022/11/21 07:40:15;;;;;;;;;;;10.00;92.20;;;;;;5134707;27;19923;-64
2022/11/21 07:42:40;;;;;;;;;;;9.90;91.90;;;;;;5132315;28;20449;-65
2022/11/21 07:45:06;;;;;;;;;;;10.10;92.10;;;;;;5127851;27;19927;-65
2022/11/21 07:47:32;;;;;;;;;;;;;;;;;;5130751;28;19924;-68
2022/11/21 07:49:58;;;;;;;;;;;10.00;92.00;;;;;;5133429;28;20301;-64
2022/11/21 07:52:24;;;;;;;;;;;;;;;;;;5133071;28;19982;-64
2022/11/21 07:54:52;;;;;;;;;;;10.10;92.00;;;;;;5133816;28;20207;-64
2022/11/21 07:57:18;;;;;;;;;;;10.00;92.00;;;;;;5133043;28;20448;-64
2022/11/21 07:59:44;;;;;;;;;;;;;;;;;;5133375;27;19927;-65
2022/11/21 08:02:20;;;;;;;;;;;10.10;92.00;;;;;;5124709;27;19990;-64
2022/11/21 08:04:46;;;;;;;;;;;10.10;92.00;;;;;;5116721;28;19977;-64
2022/11/21 08:07:12;;;;;;;;;;;10.00;92.00;;;;;;5125323;27;19923;-64
2022/11/21 08:09:37;;;;;;;;;;;9.80;91.90;;;;;;5126339;27;19924;-71
2022/11/21 08:12:03;;;;;;;;;;;10.00;91.90;;;;;;5132997;27;20388;-64
2022/11/21 08:14:29;;;;;;;;;;;10.10;91.90;;;;;;5128127;27;19924;-71
2022/11/21 08:16:55;;;;;;;;;;;;;;;;;;5118686;27;19924;-64
2022/11/21 08:19:21;;;;;;;;;;;;;;;;;;5116456;27;20598;-70
2022/11/21 08:21:46;;;;;;;;;;;10.00;91.70;;;;;;5125741;27;20009;-65
2022/11/21 08:24:13;;;;;;;;;;;10.20;91.90;;;;;;5121412;27;19923;-65
2022/11/21 08:26:39;;;;;;;;;;;10.20;92.00;;;;;;5117406;28;19923;-65
2022/11/21 08:29:05;;;;;;;;;;;10.10;91.50;;;;;;5115264;27;20296;-66
2022/11/21 08:31:31;;;;;;;;;;;10.30;92.00;;;;;;5117786;27;19923;-65
2022/11/21 08:33:56;;;;;;;;;;;10.10;92.20;;;;;;5117301;28;20312;-69
2022/11/21 08:36:22;;;;;;;;;;;10.30;92.20;;;;;;5125326;27;19923;-66
2022/11/21 08:38:48;;;;;;;;;;;;;;;;;;5124150;27;19923;-66
2022/11/21 08:43:59;;;;;;;;;;;;;;;;;;5115775;28;19930;-66
2022/11/21 08:46:26;;;;;;;;;;;10.20;91.70;;;;;;5115937;28;20345;-64
2022/11/21 08:48:53;;;;;;;;;;;10.20;92.20;;;;;;5116406;27;20019;-65
2022/11/21 08:51:19;;;;;;;;;;;10.10;92.20;;;;;;5125140;27;22015;-65
2022/11/21 08:53:45;;;;;;;;;;;10.20;92.00;;;;;;5126305;27;20016;-65
2022/11/21 08:56:10;;;;;;;;;;;10.30;92.10;;;;;;5114746;27;20380;-65
2022/11/21 08:58:36;;;;;;;;;;;10.30;92.10;;;;;;5129712;27;19972;-64
2022/11/21 09:01:02;;;;;;;;;;;10.40;92.20;;;;;;5126766;27;19963;-64
2022/11/21 09:03:28;;;;;;;;;;;10.50;92.20;;;;;;5121812;27;20281;-66
2022/11/21 09:05:57;;;;;;;;;;;10.30;91.80;;;;;;5119712;27;19924;-64
2022/11/21 09:08:23;;;;;;;;;;;10.30;92.00;;;;;;5135602;27;19949;-64
2022/11/21 09:10:48;;;;;;;;;;;10.20;92.00;;;;;;5135738;27;19924;-64
2022/11/21 09:13:14;;;;;;;;;;;;;;;;;;5128475;27;20433;-65
2022/11/21 09:18:25;;;;;;;;;;;;;;;;;;5133929;27;19930;-64
2022/11/21 09:20:50;;;;;;;;;;;10.70;92.10;;;;;;5126744;27;19930;-65
2022/11/21 09:23:16;;;;;;;;;;;10.40;92.00;;;;;;5120547;27;20380;-64
2022/11/21 09:25:42;;;;;;;;;;;10.70;92.00;;;;;;5130658;27;19924;-64
2022/11/21 09:28:08;;;;;;;;;;;10.50;92.00;;;;;;5129580;27;19967;-65
2022/11/21 09:30:34;;;;;;;;;;;10.60;92.00;;;;;;5128835;27;20269;-64
2022/11/21 09:33:00;;;;;;;;;;;10.50;91.90;;;;;;5121074;27;19968;-64
2022/11/21 09:35:26;;;;;;;;;;;10.30;91.80;;;;;;5130146;27;20384;-64
2022/11/21 09:37:51;;;;;;;;;;;10.80;91.90;;;;;;5125449;27;19923;-67
2022/11/21 09:40:17;;;;;;;;;;;10.50;91.90;;;;;;5132897;27;20036;-66
2022/11/21 09:42:58;;;;;;;;;;;10.40;91.70;;;;;;5130870;27;19947;-64
2022/11/21 09:45:33;;;;;;;;;;;10.60;91.90;;;;;;5135165;27;19970;-64
2022/11/21 09:48:00;;;;;;;;;;;10.80;91.80;;;;;;5127835;27;19923;-65
2022/11/21 09:50:28;;;;;;;;;;;10.60;91.80;;;;;;5130064;27;19928;-64
2022/11/21 09:52:54;;;;;;;;;;;;;;;;;;5100429;27;19923;-64
2022/11/21 09:55:19;;;;;;;;;;;10.60;91.50;;;;;;5127147;27;20405;-64
2022/11/21 09:57:45;;;;;;;;;;;;;;;;;;5117266;27;20030;-64
2022/11/21 10:00:22;;;;;;;;;;;10.70;91.80;;;;;;5125892;27;19931;-64
2022/11/21 10:02:48;;;;;;;;;;;10.70;91.70;;;;;;5114355;27;20281;-65
2022/11/21 10:05:14;;;;;;;;;;;10.60;91.70;;;;;;5107689;27;19927;-66
2022/11/21 10:07:40;;;;;;;;;;;10.70;91.70;;;;;;5117028;27;20329;-65
2022/11/21 10:10:09;;;;;;;;;;;10.60;91.70;;;;;;5149678;27;19951;-66
2022/11/21 10:12:58;;;;;;;;;;;10.80;91.80;;;;;;5151345;27;19930;-66
2022/11/21 10:15:24;;;;;;;;;;;;;;;;;;5118415;27;19931;-66
2022/11/21 10:17:50;;;;;;;;;;;;;;;;;;5118864;27;20014;-64
2022/11/21 10:20:18;;;;;;;;;;;;;;;;;;5133447;27;19989;-67
2022/11/21 10:23:05;;;;;;;;;;;10.70;91.50;;;;;;5131774;27;19930;-64
2022/11/21 10:25:37;;;;;;;;;;;10.60;91.60;;;;;;5107539;27;20033;-64
2022/11/21 10:28:03;;;;;;;;;;;;;;;;;;5132924;27;19923;-66
2022/11/21 10:30:29;;;;;;;;;;;10.50;91.70;;;;;;5136416;27;19923;-64
2022/11/21 10:32:56;;;;;;;;;;;10.50;91.70;;;;;;5130980;27;20365;-64
2022/11/21 10:35:22;;;;;;;;;;;;;;;;;;5110778;28;19923;-68
2022/11/21 10:37:50;;;;;;;;;;;10.70;91.70;;;;;;5121108;27;20014;-65
2022/11/21 10:40:25;;;;;;;;;;;10.80;91.80;;;;;;5134599;27;20064;-64
2022/11/21 10:42:52;;;;;;;;;;;10.80;91.80;;;;;;5133585;27;19973;-65
2022/11/21 10:45:18;;;;;;;;;;;10.70;91.80;;;;;;5134229;27;19930;-66
2022/11/21 10:47:45;;;;;;;;;;;10.70;91.60;;;;;;5121519;27;20360;-66
2022/11/21 10:50:14;;;;;;;;;;;10.90;91.80;;;;;;5096779;28;20359;-64
2022/11/21 10:52:40;;;;;;;;;;;10.80;91.70;;;;;;5112971;28;19924;-63
2022/11/21 10:55:07;;;;;;;;;;;10.80;91.60;;;;;;5123827;27;19928;-62
2022/11/21 10:57:43;;;;;;;;;;;10.90;91.60;;;;;;5132781;27;19923;-68
2022/11/21 11:00:12;;;;;;;;;;;11.00;91.80;;;;;;5149598;27;19930;-63
2022/11/21 11:02:41;;;;;;;;;;;10.80;91.80;;;;;;5133533;27;19923;-68
2022/11/21 11:05:07;;;;;;;;;;;;;;;;;;5116518;28;19968;-65
2022/11/21 11:07:33;;;;;;;;;;;10.80;91.80;;;;;;5142783;27;19931;-69
2022/11/21 11:10:15;;;;;;;;;;;10.90;91.70;;;;;;5098683;28;20377;-65
2022/11/21 11:15:26;;;;;;;;;;;10.80;91.90;;;;;;5133401;28;19937;-68
2022/11/21 11:18:01;;;;;;;;;;;10.90;92.20;;;;;;5115971;28;20018;-69
2022/11/21 11:20:35;;;;;;;;;;;11.20;92.30;;;;;;5116281;28;19924;-70
2022/11/21 11:23:14;;;;;;;;;;;11.60;92.40;;;;;;5116168;28;19931;-68
2022/11/21 11:25:40;;;;;;;;;;;11.70;92.20;;;;;;5119813;28;19976;-71
2022/11/21 11:28:06;;;;;;;;;;;11.80;92.00;;;;;;5107941;28;19935;-70
2022/11/21 11:30:32;;;;;;;;;;;11.90;91.90;;;;;;5114823;28;19923;-67
2022/11/21 11:32:57;;;;;;;;;;;12.00;91.80;;;;;;5095849;28;20430;-68
2022/11/21 11:35:23;;;;;;;;;;;11.80;91.40;;;;;;5115897;27;19924;-67
2022/11/21 11:38:07;;;;;;;;;;;12.40;91.60;;;;;;5131999;27;19924;-64
2022/11/21 11:40:37;;;;;;;;;;;12.00;91.20;;;;;;5125168;27;20315;-63
2022/11/21 11:52:21;;;;;;;;;;;12.10;91.20;;;;;;5080799;28;19924;-74
2022/11/21 11:54:48;;;;;;;;;;;12.00;91.10;;;;;;5061640;28;19931;-66
2022/11/21 11:57:14;;;;;;;;;;;12.10;91.10;;;;;;5061919;28;20335;-65
2022/11/21 11:59:40;;;;;;;;;;;12.30;91.00;;;;;;5059503;28;20015;-77
2022/11/21 12:02:06;;;;;;;;;;;12.40;91.00;;;;;;5078414;28;20447;-65
2022/11/21 12:04:33;;;;;;;;;;;12.20;90.90;;;;;;5078287;28;19924;-65
2022/11/21 12:07:05;;;;;;;;;;;12.30;90.90;;;;;;5078139;28;19962;-77
2022/11/21 12:09:31;;;;;;;;;;;12.20;90.80;;;;;;5078115;28;19947;-65
2022/11/21 12:12:15;;;;;;;;;;;12.30;90.80;;;;;;5093320;28;19928;-67
2022/11/21 12:17:26;;;;;;;;;;;12.40;90.80;;;;;;5091692;28;20318;-67
2022/11/21 12:19:52;;;;;;;;;;;12.50;90.80;;;;;;5079619;28;20408;-68
2022/11/21 12:22:18;;;;;;;;;;;;;;;;;;5078140;28;19967;-72
2022/11/21 12:24:44;;;;;;;;;;;12.40;90.70;;;;;;5116657;28;19931;-68
2022/11/21 12:27:16;;;;;;;;;;;12.40;90.60;;;;;;5115901;28;19924;-67
2022/11/21 12:29:42;;;;;;;;;;;12.60;90.70;;;;;;5107383;27;20015;-76
2022/11/21 12:32:08;;;;;;;;;;;;;;;;;;5133088;27;20322;-67
2022/11/21 12:34:46;;;;;;;;;;;12.50;90.60;;;;;;5117532;27;20274;-70
2022/11/21 12:37:15;;;;;;;;;;;12.70;90.60;;;;;;5131498;27;19924;-70
2022/11/21 12:39:59;;;;;;;;;;;12.40;90.50;;;;;;5136152;27;20398;-64
2022/11/21 12:42:48;;;;;;;;;;;12.30;90.50;;;;;;5128073;27;19928;-66
2022/11/21 12:45:17;;;;;;;;;;;12.40;90.50;;;;;;5117382;28;20375;-76
2022/11/21 12:56:31;;;;;;;;;;;12.50;90.50;;;;;;5122751;27;20022;-66
2022/11/21 12:58:57;;;;;;;;;;;12.60;90.50;;;;;;5098575;28;19931;-65
2022/11/21 13:01:29;;;;;;;;;;;12.40;90.30;;;;;;5122328;27;20312;-66
2022/11/21 13:04:01;;;;;;;;;;;12.60;90.30;;;;;;5119424;27;20400;-68
2022/11/21 13:06:35;;;;;;;;;;;12.80;90.50;;;;;;5122324;27;20371;-75
2022/11/21 13:09:02;;;;;;;;;;;;;;;;;;5128282;27;19931;-71
2022/11/21 13:14:31;;;;;;;;;;;12.50;90.40;;;;;;5132255;27;20566;-65
2022/11/21 13:17:06;;;;;;;;;;;12.50;90.40;;;;;;5122451;27;19933;-66
2022/11/21 13:19:36;;;;;;;;;;;12.40;90.50;;;;;;5115612;27;19942;-64
2022/11/21 13:22:02;;;;;;;;;;;12.60;90.50;;;;;;5118186;27;19923;-66
2022/11/21 13:24:43;;;;;;;;;;;12.60;90.50;;;;;;5140687;27;19937;-74
2022/11/21 13:27:29;;;;;;;;;;;12.40;90.40;;;;;;5135563;27;19948;-65
2022/11/21 13:30:10;;;;;;;;;;;12.30;90.40;;;;;;5128026;27;19927;-65
2022/11/21 13:32:36;;;;;;;;;;;;;;;;;;5118350;27;20356;-64
2022/11/21 13:35:02;;;;;;;;;;;12.60;90.40;;;;;;5135394;27;20285;-66
2022/11/21 13:37:28;;;;;;;;;;;;;;;;;;5135331;27;20016;-67
2022/11/21 13:39:54;;;;;;;;;;;12.50;90.30;;;;;;5134591;27;19930;-64
2022/11/21 13:45:04;;;;;;;;;;;;;;;;;;5135215;27;20395;-67
2022/11/21 13:47:35;;;;;;;;;;;12.60;90.20;;;;;;5135968;27;19919;-66
2022/11/21 13:50:19;;;;;;;;;;;12.80;90.20;;;;;;5117593;27;19924;-67
2022/11/21 13:52:45;;;;;;;;;;;12.80;90.10;;;;;;5134608;27;20022;-67
2022/11/21 13:55:23;;;;;;;;;;;12.50;90.00;;;;;;5133356;27;20006;-68
2022/11/21 13:57:52;;;;;;;;;;;12.40;89.90;;;;;;5133055;27;20293;-68
2022/11/21 14:00:21;;;;;;;;;;;12.70;90.00;;;;;;5134763;27;19963;-67
2022/11/21 14:02:49;;;;;;;;;;;12.60;90.00;;;;;;5134544;27;20013;-68
2022/11/21 14:05:18;;;;;;;;;;;12.70;89.40;;;;;;5134766;27;19931;-67
2022/11/21 14:07:44;;;;;;;;;;;12.80;90.00;;;;;;5134289;27;20305;-68
2022/11/21 14:10:30;;;;;;;;;;;12.60;89.70;;;;;;5131453;27;19924;-69
2022/11/21 14:12:55;;;;;;;;;;;12.60;89.70;;;;;;5106983;28;19928;-72
2022/11/21 14:15:22;;;;;;;;;;;;;;;;;;5104848;28;19924;-67
2022/11/21 14:17:49;;;;;;;;;;;;;;;;;;5117001;27;19924;-65
2022/11/21 14:20:21;;;;;;;;;;;12.60;89.80;;;;;;5113694;28;19935;-65
2022/11/21 14:22:53;;;;;;;;;;;12.70;89.90;;;;;;5119043;27;19923;-66
2022/11/21 14:25:19;;;;;;;;;;;12.80;89.90;;;;;;5134243;27;19923;-65
2022/11/21 14:27:45;;;;;;;;;;;;;;;;;;5097972;27;19975;-65
2022/11/21 14:30:30;;;;;;;;;;;12.70;89.90;;;;;;5113394;28;20373;-65
2022/11/21 14:32:55;;;;;;;;;;;12.90;89.90;;;;;;5146067;27;19927;-66
2022/11/21 14:35:21;;;;;;;;;;;12.80;89.90;;;;;;5133921;27;20337;-65
2022/11/21 14:37:47;;;;;;;;;;;12.70;89.80;;;;;;5133893;27;19919;-67
2022/11/21 14:40:18;;;;;;;;;;;12.70;89.80;;;;;;5133845;27;19923;-68
2022/11/21 14:42:44;;;;;;;;;;;12.80;90.00;;;;;;5117020;27;19924;-67
2022/11/21 14:45:16;;;;;;;;;;;12.90;90.00;;;;;;5099715;27;20345;-74
2022/11/21 14:47:46;;;;;;;;;;;12.90;90.00;;;;;;5147314;27;19931;-66
2022/11/21 14:50:28;;;;;;;;;;;12.90;90.10;;;;;;5115386;27;19930;-65
2022/11/21 14:52:57;;;;;;;;;;;12.80;90.00;;;;;;5079255;28;20301;-70
2022/11/21 14:55:23;;;;;;;;;;;;;;;;;;5096667;28;19924;-65
2022/11/21 14:57:49;;;;;;;;;;;12.60;89.90;;;;;;5114097;28;19930;-66
2022/11/21 15:00:16;;;;;;;;;;;12.60;90.10;;;;;;5116336;27;19927;-66
2022/11/21 15:02:41;;;;;;;;;;;12.90;90.20;;;;;;5116880;27;20284;-66
2022/11/21 15:05:11;;;;;;;;;;;12.80;90.10;;;;;;5114221;28;19944;-67
2022/11/21 15:07:44;;;;;;;;;;;12.80;90.10;;;;;;5109089;28;20321;-67
2022/11/21 15:10:20;;;;;;;;;;;12.70;90.20;;;;;;5116071;28;19931;-66
2022/11/21 15:12:45;;;;;;;;;;;12.30;90.10;;;;;;5132911;28;19935;-66
2022/11/21 15:15:24;;;;;;;;;;;12.70;90.20;;;;;;5134567;28;19923;-66
2022/11/21 15:17:51;;;;;;;;;;;12.40;90.10;;;;;;5133536;28;20366;-67
2022/11/21 15:20:18;;;;;;;;;;;12.60;90.10;;;;;;5116267;28;19930;-68